Terminal Aerodrome Forecast
Issued by NWS

Home | Current Version | Previous Version | Text Only | Print | Product List | Glossary On
Versions: 1 2 3 4 5 6 7 8 9 10 11 12 13 14 15 16 17 18 19 20 21 22 23 24 25 26 27 28 29 30
000
FTUS43 KDLH 182040 AAC
TAFBRD
TAF AMD
KBRD 182040Z 1821/1918 27010KT P6SM VCTS SCT050CB BKN100
      TEMPO 1820/1823 28013G25KT TSRA BKN035CB
     FM182300 27007KT P6SM VCSH SCT050 BKN100
     FM190100 26006KT P6SM BKN100
     FM190900 00000KT 4SM BR FEW110
     FM191100 00000KT 3SM BR FEW080
     FM191400 VRB03KT P6SM FEW110=

USA.gov is the U.S. government's official web portal to all federal, state and local government web resources and services.